首页
METAR-TAF:

METAR-TAF

机场 :

开普敦国际机场

開普敦, 南非共和國

纬度: 33-59S, 经度: 018-36E, 海拔: 42米

当前天气观测

该预报发布于50分钟前的23:00 UTC
风速8节,风向西南
温度 17°C
湿度 63%
气压 1015 hPa
能见度10公里或以上
1500米以下无云,无积雨云

METAR: FACT 212300Z 22008KT CAVOK 17/10 Q1015 NOSIG

时间: 01:50 (23:50 UTC)

预报

该预报发布于1小时和50分钟前的22:00 UTC
预报有效从22日的 00点(UTC)到 23日的 06点(UTC)
风速3节,风向多变
能见度10公里或以上
1500米以下无云,无积雨云
成为
从 22日的 10点(UTC)到 22日的 12点(UTC)
风速10节,风向
成为
从 22日的 22点(UTC)到 22日的 24点(UTC)
风速10节,风向

TAF: FACT 212200Z 2200/2306 VRB03KT CAVOK BECMG 2210/2212 19010KT BECMG 2222/2224 35010KT TX35/2212Z TN15/2204Z

超过4000个机场的气象观测和天气预报(METAR&TAF报告)。

可查询的气象台以黄色和红色小点在地图上表示。

将鼠标移到小点上方,可查看气象台名称。

然后点击查看天气观测和预报。

如需切换地图:点击带黑十字的绿色按钮放大地图;点击带横线的绿色按钮缩小地图;或者点击绿色箭头查看邻近地区的地图。


METAR-TAF: